sensor_id;sensor_type;location;lat;lon;timestamp;P1;durP1;ratioP1;P2;durP2;ratioP2
22064;SDS011;11197;53.110;8.468;2024-03-02T00:01:04;15.55;;;10.77;;
22064;SDS011;11197;53.110;8.468;2024-03-02T00:03:30;15.02;;;10.48;;
22064;SDS011;11197;53.110;8.468;2024-03-02T00:05:55;18.10;;;11.65;;
22064;SDS011;11197;53.110;8.468;2024-03-02T00:08:24;18.45;;;11.63;;
22064;SDS011;11197;53.110;8.468;2024-03-02T00:10:51;17.83;;;11.63;;
22064;SDS011;11197;53.110;8.468;2024-03-02T00:13:21;19.60;;;11.82;;
22064;SDS011;11197;53.110;8.468;2024-03-02T00:15:53;20.25;;;13.20;;
22064;SDS011;11197;53.110;8.468;2024-03-02T00:18:33;19.13;;;12.45;;
22064;SDS011;11197;53.110;8.468;2024-03-02T00:21:00;19.63;;;13.50;;
22064;SDS011;11197;53.110;8.468;2024-03-02T00:23:29;19.00;;;13.40;;
22064;SDS011;11197;53.110;8.468;2024-03-02T00:25:56;19.73;;;13.65;;
22064;SDS011;11197;53.110;8.468;2024-03-02T00:31:12;19.13;;;13.23;;
22064;SDS011;11197;53.110;8.468;2024-03-02T00:33:42;19.05;;;13.02;;
22064;SDS011;11197;53.110;8.468;2024-03-02T00:36:09;18.55;;;13.07;;
22064;SDS011;11197;53.110;8.468;2024-03-02T00:38:46;19.90;;;12.88;;
22064;SDS011;11197;53.110;8.468;2024-03-02T00:43:57;18.85;;;12.88;;
22064;SDS011;11197;53.110;8.468;2024-03-02T00:46:22;20.80;;;13.38;;
22064;SDS011;11197;53.110;8.468;2024-03-02T00:48:55;19.80;;;13.07;;
22064;SDS011;11197;53.110;8.468;2024-03-02T00:51:23;18.85;;;12.43;;
22064;SDS011;11197;53.110;8.468;2024-03-02T00:53:54;18.88;;;12.65;;
22064;SDS011;11197;53.110;8.468;2024-03-02T00:56:24;21.42;;;13.13;;
22064;SDS011;11197;53.110;8.468;2024-03-02T00:58:51;19.10;;;12.80;;
22064;SDS011;11197;53.110;8.468;2024-03-02T01:01:17;17.90;;;12.15;;
22064;SDS011;11197;53.110;8.468;2024-03-02T01:03:45;18.92;;;12.15;;
22064;SDS011;11197;53.110;8.468;2024-03-02T01:06:11;17.30;;;11.93;;
22064;SDS011;11197;53.110;8.468;2024-03-02T01:08:37;17.52;;;12.10;;
22064;SDS011;11197;53.110;8.468;2024-03-02T01:11:03;19.70;;;13.18;;
22064;SDS011;11197;53.110;8.468;2024-03-02T01:13:30;17.63;;;11.85;;
22064;SDS011;11197;53.110;8.468;2024-03-02T01:15:56;18.50;;;12.43;;
22064;SDS011;11197;53.110;8.468;2024-03-02T01:18:23;17.50;;;12.30;;
22064;SDS011;11197;53.110;8.468;2024-03-02T01:20:49;20.08;;;13.10;;
22064;SDS011;11197;53.110;8.468;2024-03-02T01:23:21;20.67;;;12.18;;
22064;SDS011;11197;53.110;8.468;2024-03-02T01:25:47;16.83;;;12.00;;
22064;SDS011;11197;53.110;8.468;2024-03-02T01:28:13;17.63;;;12.20;;
22064;SDS011;11197;53.110;8.468;2024-03-02T01:30:39;16.02;;;11.43;;
22064;SDS011;11197;53.110;8.468;2024-03-02T01:33:05;17.17;;;11.70;;
22064;SDS011;11197;53.110;8.468;2024-03-02T01:35:32;20.00;;;13.02;;
22064;SDS011;11197;53.110;8.468;2024-03-02T01:37:58;19.10;;;12.07;;
22064;SDS011;11197;53.110;8.468;2024-03-02T01:40:24;17.92;;;12.07;;
22064;SDS011;11197;53.110;8.468;2024-03-02T01:42:53;17.00;;;11.85;;
22064;SDS011;11197;53.110;8.468;2024-03-02T01:45:20;16.70;;;11.88;;
22064;SDS011;11197;53.110;8.468;2024-03-02T01:47:46;19.42;;;12.63;;
22064;SDS011;11197;53.110;8.468;2024-03-02T01:50:12;17.83;;;12.18;;
22064;SDS011;11197;53.110;8.468;2024-03-02T01:52:38;16.60;;;11.70;;
22064;SDS011;11197;53.110;8.468;2024-03-02T01:55:04;17.88;;;12.75;;
22064;SDS011;11197;53.110;8.468;2024-03-02T01:57:37;15.90;;;11.80;;
22064;SDS011;11197;53.110;8.468;2024-03-02T02:00:03;16.65;;;11.38;;
22064;SDS011;11197;53.110;8.468;2024-03-02T02:02:36;19.13;;;11.88;;
22064;SDS011;11197;53.110;8.468;2024-03-02T02:05:02;18.60;;;11.77;;
22064;SDS011;11197;53.110;8.468;2024-03-02T02:07:29;16.88;;;11.30;;
22064;SDS011;11197;53.110;8.468;2024-03-02T02:09:55;15.80;;;11.13;;
22064;SDS011;11197;53.110;8.468;2024-03-02T02:12:20;15.85;;;11.38;;
22064;SDS011;11197;53.110;8.468;2024-03-02T02:14:47;17.30;;;11.02;;
22064;SDS011;11197;53.110;8.468;2024-03-02T02:17:14;16.27;;;10.63;;
22064;SDS011;11197;53.110;8.468;2024-03-02T02:19:42;15.70;;;10.85;;
22064;SDS011;11197;53.110;8.468;2024-03-02T02:22:09;15.32;;;10.73;;
22064;SDS011;11197;53.110;8.468;2024-03-02T02:24:35;15.70;;;10.85;;
22064;SDS011;11197;53.110;8.468;2024-03-02T02:27:01;16.85;;;10.70;;
22064;SDS011;11197;53.110;8.468;2024-03-02T02:29:27;16.83;;;11.02;;
22064;SDS011;11197;53.110;8.468;2024-03-02T02:31:52;16.27;;;10.52;;
22064;SDS011;11197;53.110;8.468;2024-03-02T02:34:18;14.63;;;9.82;;
22064;SDS011;11197;53.110;8.468;2024-03-02T02:36:44;16.92;;;10.45;;
22064;SDS011;11197;53.110;8.468;2024-03-02T02:39:11;16.55;;;10.57;;
22064;SDS011;11197;53.110;8.468;2024-03-02T02:41:40;14.30;;;9.32;;
22064;SDS011;11197;53.110;8.468;2024-03-02T02:44:06;13.63;;;9.85;;
22064;SDS011;11197;53.110;8.468;2024-03-02T02:46:31;16.73;;;10.38;;
22064;SDS011;11197;53.110;8.468;2024-03-02T02:48:57;14.40;;;10.05;;
22064;SDS011;11197;53.110;8.468;2024-03-02T02:51:23;14.77;;;10.38;;
22064;SDS011;11197;53.110;8.468;2024-03-02T02:53:50;14.85;;;9.73;;
22064;SDS011;11197;53.110;8.468;2024-03-02T02:56:16;13.63;;;9.73;;
22064;SDS011;11197;53.110;8.468;2024-03-02T02:58:42;14.63;;;9.82;;
22064;SDS011;11197;53.110;8.468;2024-03-02T03:01:08;13.98;;;9.73;;
22064;SDS011;11197;53.110;8.468;2024-03-02T03:03:34;15.63;;;9.98;;
22064;SDS011;11197;53.110;8.468;2024-03-02T03:05:59;13.45;;;9.73;;
22064;SDS011;11197;53.110;8.468;2024-03-02T03:08:25;14.73;;;10.63;;
22064;SDS011;11197;53.110;8.468;2024-03-02T03:10:51;13.93;;;9.70;;
22064;SDS011;11197;53.110;8.468;2024-03-02T03:13:17;14.25;;;9.65;;
22064;SDS011;11197;53.110;8.468;2024-03-02T03:15:42;16.38;;;10.60;;
22064;SDS011;11197;53.110;8.468;2024-03-02T03:18:08;13.80;;;10.13;;
22064;SDS011;11197;53.110;8.468;2024-03-02T03:20:35;14.35;;;9.88;;
22064;SDS011;11197;53.110;8.468;2024-03-02T03:23:01;13.77;;;9.77;;
22064;SDS011;11197;53.110;8.468;2024-03-02T03:25:29;13.68;;;10.10;;
22064;SDS011;11197;53.110;8.468;2024-03-02T03:27:55;15.82;;;10.52;;
22064;SDS011;11197;53.110;8.468;2024-03-02T03:30:21;15.60;;;10.57;;
22064;SDS011;11197;53.110;8.468;2024-03-02T03:32:46;16.15;;;10.88;;
22064;SDS011;11197;53.110;8.468;2024-03-02T03:35:13;16.10;;;10.68;;
22064;SDS011;11197;53.110;8.468;2024-03-02T03:37:40;14.30;;;10.38;;
22064;SDS011;11197;53.110;8.468;2024-03-02T03:40:06;16.00;;;10.30;;
22064;SDS011;11197;53.110;8.468;2024-03-02T03:42:38;15.73;;;10.77;;
22064;SDS011;11197;53.110;8.468;2024-03-02T03:45:04;16.05;;;10.95;;
22064;SDS011;11197;53.110;8.468;2024-03-02T03:47:31;17.55;;;10.93;;
22064;SDS011;11197;53.110;8.468;2024-03-02T03:49:59;16.45;;;10.90;;
22064;SDS011;11197;53.110;8.468;2024-03-02T03:52:24;16.33;;;10.95;;
22064;SDS011;11197;53.110;8.468;2024-03-02T03:54:50;16.27;;;11.15;;
22064;SDS011;11197;53.110;8.468;2024-03-02T03:57:16;14.05;;;10.25;;
22064;SDS011;11197;53.110;8.468;2024-03-02T03:59:42;16.42;;;11.20;;
22064;SDS011;11197;53.110;8.468;2024-03-02T04:02:08;15.13;;;10.93;;
22064;SDS011;11197;53.110;8.468;2024-03-02T04:04:34;14.98;;;10.82;;
22064;SDS011;11197;53.110;8.468;2024-03-02T04:07:00;15.15;;;10.63;;
22064;SDS011;11197;53.110;8.468;2024-03-02T04:09:26;14.65;;;10.43;;
22064;SDS011;11197;53.110;8.468;2024-03-02T04:11:52;16.15;;;11.05;;
22064;SDS011;11197;53.110;8.468;2024-03-02T04:14:18;16.15;;;10.80;;
22064;SDS011;11197;53.110;8.468;2024-03-02T04:16:44;16.63;;;10.80;;
22064;SDS011;11197;53.110;8.468;2024-03-02T04:19:09;15.95;;;10.82;;
22064;SDS011;11197;53.110;8.468;2024-03-02T04:21:35;14.73;;;10.63;;
22064;SDS011;11197;53.110;8.468;2024-03-02T04:24:01;14.95;;;10.65;;
22064;SDS011;11197;53.110;8.468;2024-03-02T04:26:27;16.70;;;10.73;;
22064;SDS011;11197;53.110;8.468;2024-03-02T04:28:53;14.20;;;10.57;;
22064;SDS011;11197;53.110;8.468;2024-03-02T04:31:19;16.73;;;10.88;;
22064;SDS011;11197;53.110;8.468;2024-03-02T04:33:45;16.40;;;11.35;;
22064;SDS011;11197;53.110;8.468;2024-03-02T04:36:11;15.57;;;10.75;;
22064;SDS011;11197;53.110;8.468;2024-03-02T04:38:37;15.52;;;10.85;;
22064;SDS011;11197;53.110;8.468;2024-03-02T04:41:04;20.40;;;12.05;;
22064;SDS011;11197;53.110;8.468;2024-03-02T04:43:33;18.80;;;11.90;;
22064;SDS011;11197;53.110;8.468;2024-03-02T04:46:00;17.38;;;11.63;;
22064;SDS011;11197;53.110;8.468;2024-03-02T04:48:26;16.52;;;11.63;;
22064;SDS011;11197;53.110;8.468;2024-03-02T04:50:52;16.52;;;11.45;;
22064;SDS011;11197;53.110;8.468;2024-03-02T04:53:18;18.63;;;12.10;;
22064;SDS011;11197;53.110;8.468;2024-03-02T04:55:43;18.85;;;12.30;;
22064;SDS011;11197;53.110;8.468;2024-03-02T04:58:09;17.33;;;11.90;;
22064;SDS011;11197;53.110;8.468;2024-03-02T05:00:35;17.23;;;11.82;;
22064;SDS011;11197;53.110;8.468;2024-03-02T05:03:01;18.52;;;12.15;;
22064;SDS011;11197;53.110;8.468;2024-03-02T05:05:28;16.50;;;11.88;;
22064;SDS011;11197;53.110;8.468;2024-03-02T05:07:54;16.70;;;11.93;;
22064;SDS011;11197;53.110;8.468;2024-03-02T05:10:19;18.75;;;12.75;;
22064;SDS011;11197;53.110;8.468;2024-03-02T05:12:45;18.73;;;12.75;;
22064;SDS011;11197;53.110;8.468;2024-03-02T05:15:12;19.58;;;12.27;;
22064;SDS011;11197;53.110;8.468;2024-03-02T05:17:39;18.70;;;12.85;;
22064;SDS011;11197;53.110;8.468;2024-03-02T05:20:06;19.05;;;12.38;;
22064;SDS011;11197;53.110;8.468;2024-03-02T05:22:36;17.58;;;12.25;;
22064;SDS011;11197;53.110;8.468;2024-03-02T05:25:02;20.17;;;12.15;;
22064;SDS011;11197;53.110;8.468;2024-03-02T05:27:29;18.02;;;12.93;;
22064;SDS011;11197;53.110;8.468;2024-03-02T05:29:55;18.95;;;12.38;;
22064;SDS011;11197;53.110;8.468;2024-03-02T05:32:21;17.58;;;12.30;;
22064;SDS011;11197;53.110;8.468;2024-03-02T05:34:47;20.65;;;13.38;;
22064;SDS011;11197;53.110;8.468;2024-03-02T05:37:13;19.92;;;13.85;;
22064;SDS011;11197;53.110;8.468;2024-03-02T05:39:38;19.50;;;13.40;;
22064;SDS011;11197;53.110;8.468;2024-03-02T05:42:04;20.02;;;12.63;;
22064;SDS011;11197;53.110;8.468;2024-03-02T05:44:31;19.52;;;12.48;;
22064;SDS011;11197;53.110;8.468;2024-03-02T05:46:57;17.85;;;12.38;;
22064;SDS011;11197;53.110;8.468;2024-03-02T05:49:23;17.55;;;12.32;;
22064;SDS011;11197;53.110;8.468;2024-03-02T05:51:48;17.73;;;12.32;;
22064;SDS011;11197;53.110;8.468;2024-03-02T05:54:14;18.23;;;11.98;;
22064;SDS011;11197;53.110;8.468;2024-03-02T05:56:40;16.45;;;11.40;;
22064;SDS011;11197;53.110;8.468;2024-03-02T05:59:05;18.10;;;12.50;;
22064;SDS011;11197;53.110;8.468;2024-03-02T06:01:44;17.45;;;12.18;;
22064;SDS011;11197;53.110;8.468;2024-03-02T06:04:15;18.65;;;12.65;;
22064;SDS011;11197;53.110;8.468;2024-03-02T06:06:41;16.92;;;12.18;;
22064;SDS011;11197;53.110;8.468;2024-03-02T06:09:07;17.73;;;12.32;;
22064;SDS011;11197;53.110;8.468;2024-03-02T06:11:36;17.02;;;11.82;;
22064;SDS011;11197;53.110;8.468;2024-03-02T06:14:03;18.38;;;12.52;;
22064;SDS011;11197;53.110;8.468;2024-03-02T06:16:30;16.92;;;11.90;;
22064;SDS011;11197;53.110;8.468;2024-03-02T06:18:56;17.70;;;12.00;;
22064;SDS011;11197;53.110;8.468;2024-03-02T06:21:29;16.45;;;11.25;;
22064;SDS011;11197;53.110;8.468;2024-03-02T06:23:55;17.42;;;11.18;;
22064;SDS011;11197;53.110;8.468;2024-03-02T06:26:21;15.70;;;11.30;;
22064;SDS011;11197;53.110;8.468;2024-03-02T06:28:47;18.10;;;12.02;;
22064;SDS011;11197;53.110;8.468;2024-03-02T06:31:13;16.40;;;11.60;;
22064;SDS011;11197;53.110;8.468;2024-03-02T06:33:38;17.48;;;11.90;;
22064;SDS011;11197;53.110;8.468;2024-03-02T06:36:05;15.82;;;11.15;;
22064;SDS011;11197;53.110;8.468;2024-03-02T06:38:33;15.88;;;11.10;;
22064;SDS011;11197;53.110;8.468;2024-03-02T06:40:59;16.05;;;11.63;;
22064;SDS011;11197;53.110;8.468;2024-03-02T06:43:25;15.75;;;11.23;;
22064;SDS011;11197;53.110;8.468;2024-03-02T06:45:51;17.75;;;11.93;;
22064;SDS011;11197;53.110;8.468;2024-03-02T06:48:17;15.90;;;11.20;;
22064;SDS011;11197;53.110;8.468;2024-03-02T06:50:47;16.63;;;11.80;;
22064;SDS011;11197;53.110;8.468;2024-03-02T06:53:14;20.95;;;11.27;;
22064;SDS011;11197;53.110;8.468;2024-03-02T06:55:43;16.58;;;11.30;;
22064;SDS011;11197;53.110;8.468;2024-03-02T06:58:15;17.45;;;11.52;;
22064;SDS011;11197;53.110;8.468;2024-03-02T07:00:41;14.93;;;10.70;;
22064;SDS011;11197;53.110;8.468;2024-03-02T07:03:07;17.15;;;11.50;;
22064;SDS011;11197;53.110;8.468;2024-03-02T07:05:33;19.17;;;12.35;;
22064;SDS011;11197;53.110;8.468;2024-03-02T07:07:59;17.23;;;11.88;;
22064;SDS011;11197;53.110;8.468;2024-03-02T07:10:26;17.50;;;11.88;;
22064;SDS011;11197;53.110;8.468;2024-03-02T07:12:52;18.00;;;12.52;;
22064;SDS011;11197;53.110;8.468;2024-03-02T07:15:18;16.67;;;11.77;;
22064;SDS011;11197;53.110;8.468;2024-03-02T07:17:55;17.10;;;12.02;;
22064;SDS011;11197;53.110;8.468;2024-03-02T07:20:21;16.58;;;11.90;;
22064;SDS011;11197;53.110;8.468;2024-03-02T07:22:46;17.13;;;11.95;;
22064;SDS011;11197;53.110;8.468;2024-03-02T07:25:12;15.90;;;11.15;;
22064;SDS011;11197;53.110;8.468;2024-03-02T07:27:38;17.23;;;11.85;;
22064;SDS011;11197;53.110;8.468;2024-03-02T07:30:04;15.73;;;11.23;;
22064;SDS011;11197;53.110;8.468;2024-03-02T07:32:31;16.90;;;11.98;;
22064;SDS011;11197;53.110;8.468;2024-03-02T07:34:57;19.00;;;11.73;;
22064;SDS011;11197;53.110;8.468;2024-03-02T07:37:23;19.13;;;13.05;;
22064;SDS011;11197;53.110;8.468;2024-03-02T07:39:49;16.52;;;11.60;;
22064;SDS011;11197;53.110;8.468;2024-03-02T07:42:15;18.05;;;12.57;;
22064;SDS011;11197;53.110;8.468;2024-03-02T07:44:41;17.85;;;11.90;;
22064;SDS011;11197;53.110;8.468;2024-03-02T07:47:07;19.98;;;14.32;;
22064;SDS011;11197;53.110;8.468;2024-03-02T07:49:33;18.85;;;13.55;;
22064;SDS011;11197;53.110;8.468;2024-03-02T07:51:59;18.48;;;13.25;;
22064;SDS011;11197;53.110;8.468;2024-03-02T07:54:25;17.00;;;12.45;;
22064;SDS011;11197;53.110;8.468;2024-03-02T07:56:51;17.63;;;11.73;;
22064;SDS011;11197;53.110;8.468;2024-03-02T07:59:17;18.90;;;12.07;;
22064;SDS011;11197;53.110;8.468;2024-03-02T08:01:43;19.13;;;12.77;;
22064;SDS011;11197;53.110;8.468;2024-03-02T08:04:09;18.27;;;12.95;;
22064;SDS011;11197;53.110;8.468;2024-03-02T08:06:34;18.77;;;13.13;;
22064;SDS011;11197;53.110;8.468;2024-03-02T08:09:00;18.80;;;13.35;;
22064;SDS011;11197;53.110;8.468;2024-03-02T08:11:27;21.33;;;13.35;;
22064;SDS011;11197;53.110;8.468;2024-03-02T08:13:53;18.85;;;12.50;;
22064;SDS011;11197;53.110;8.468;2024-03-02T08:16:20;19.30;;;13.20;;
22064;SDS011;11197;53.110;8.468;2024-03-02T08:18:48;19.70;;;13.13;;
22064;SDS011;11197;53.110;8.468;2024-03-02T08:21:14;19.42;;;13.43;;
22064;SDS011;11197;53.110;8.468;2024-03-02T08:23:40;17.15;;;11.95;;
22064;SDS011;11197;53.110;8.468;2024-03-02T08:26:08;17.13;;;12.52;;
22064;SDS011;11197;53.110;8.468;2024-03-02T08:28:34;19.95;;;13.13;;
22064;SDS011;11197;53.110;8.468;2024-03-02T08:31:02;18.48;;;12.23;;
22064;SDS011;11197;53.110;8.468;2024-03-02T08:33:28;19.23;;;13.10;;
22064;SDS011;11197;53.110;8.468;2024-03-02T08:35:54;20.00;;;13.60;;
22064;SDS011;11197;53.110;8.468;2024-03-02T08:38:21;22.77;;;13.70;;
22064;SDS011;11197;53.110;8.468;2024-03-02T08:40:46;19.42;;;13.18;;
22064;SDS011;11197;53.110;8.468;2024-03-02T08:43:12;23.33;;;13.93;;
22064;SDS011;11197;53.110;8.468;2024-03-02T08:45:39;21.40;;;14.13;;
22064;SDS011;11197;53.110;8.468;2024-03-02T08:48:06;22.42;;;13.63;;
22064;SDS011;11197;53.110;8.468;2024-03-02T08:50:33;19.52;;;13.55;;
22064;SDS011;11197;53.110;8.468;2024-03-02T08:53:00;19.77;;;13.38;;
22064;SDS011;11197;53.110;8.468;2024-03-02T08:55:26;21.98;;;14.20;;
22064;SDS011;11197;53.110;8.468;2024-03-02T08:57:51;19.92;;;13.30;;
22064;SDS011;11197;53.110;8.468;2024-03-02T09:00:18;20.50;;;13.40;;
22064;SDS011;11197;53.110;8.468;2024-03-02T09:02:44;20.60;;;13.63;;
22064;SDS011;11197;53.110;8.468;2024-03-02T09:05:10;19.52;;;13.63;;
22064;SDS011;11197;53.110;8.468;2024-03-02T09:07:36;19.10;;;13.10;;
22064;SDS011;11197;53.110;8.468;2024-03-02T09:10:04;19.02;;;12.77;;
22064;SDS011;11197;53.110;8.468;2024-03-02T09:12:33;19.52;;;12.73;;
22064;SDS011;11197;53.110;8.468;2024-03-02T09:14:59;18.85;;;12.38;;
22064;SDS011;11197;53.110;8.468;2024-03-02T09:17:28;20.35;;;12.32;;
22064;SDS011;11197;53.110;8.468;2024-03-02T09:19:55;19.65;;;12.60;;
22064;SDS011;11197;53.110;8.468;2024-03-02T09:22:20;15.25;;;10.85;;
22064;SDS011;11197;53.110;8.468;2024-03-02T09:24:46;16.70;;;11.20;;
22064;SDS011;11197;53.110;8.468;2024-03-02T09:27:12;16.85;;;11.00;;
22064;SDS011;11197;53.110;8.468;2024-03-02T09:29:38;16.70;;;10.52;;
22064;SDS011;11197;53.110;8.468;2024-03-02T09:32:05;17.85;;;10.55;;
22064;SDS011;11197;53.110;8.468;2024-03-02T09:34:31;15.77;;;9.95;;
22064;SDS011;11197;53.110;8.468;2024-03-02T09:36:57;17.23;;;10.32;;
22064;SDS011;11197;53.110;8.468;2024-03-02T09:39:23;13.32;;;9.48;;
22064;SDS011;11197;53.110;8.468;2024-03-02T09:41:50;13.90;;;9.48;;
22064;SDS011;11197;53.110;8.468;2024-03-02T09:44:16;13.00;;;9.20;;
22064;SDS011;11197;53.110;8.468;2024-03-02T09:46:42;17.27;;;9.50;;
22064;SDS011;11197;53.110;8.468;2024-03-02T09:49:12;14.23;;;8.70;;
22064;SDS011;11197;53.110;8.468;2024-03-02T09:51:37;13.02;;;7.72;;
22064;SDS011;11197;53.110;8.468;2024-03-02T09:54:04;12.73;;;7.93;;
22064;SDS011;11197;53.110;8.468;2024-03-02T09:56:32;11.52;;;7.60;;
22064;SDS011;11197;53.110;8.468;2024-03-02T09:58:58;11.88;;;7.93;;
22064;SDS011;11197;53.110;8.468;2024-03-02T10:01:24;12.13;;;8.05;;
22064;SDS011;11197;53.110;8.468;2024-03-02T10:03:50;13.75;;;7.80;;
22064;SDS011;11197;53.110;8.468;2024-03-02T10:06:26;16.02;;;7.50;;
22064;SDS011;11197;53.110;8.468;2024-03-02T10:08:53;24.20;;;8.35;;
22064;SDS011;11197;53.110;8.468;2024-03-02T10:11:27;15.77;;;7.55;;
22064;SDS011;11197;53.110;8.468;2024-03-02T10:14:13;13.98;;;7.30;;
22064;SDS011;11197;53.110;8.468;2024-03-02T10:16:40;12.68;;;7.97;;
22064;SDS011;11197;53.110;8.468;2024-03-02T10:19:14;11.05;;;7.38;;
22064;SDS011;11197;53.110;8.468;2024-03-02T10:21:43;11.27;;;7.28;;
22064;SDS011;11197;53.110;8.468;2024-03-02T10:24:09;11.15;;;7.53;;
22064;SDS011;11197;53.110;8.468;2024-03-02T10:26:35;11.63;;;7.68;;
22064;SDS011;11197;53.110;8.468;2024-03-02T10:29:01;11.30;;;7.45;;
22064;SDS011;11197;53.110;8.468;2024-03-02T10:31:27;10.93;;;7.13;;
22064;SDS011;11197;53.110;8.468;2024-03-02T10:33:54;11.57;;;7.03;;
22064;SDS011;11197;53.110;8.468;2024-03-02T10:36:20;10.18;;;7.45;;
22064;SDS011;11197;53.110;8.468;2024-03-02T10:38:46;10.90;;;7.35;;
22064;SDS011;11197;53.110;8.468;2024-03-02T10:41:19;10.63;;;7.38;;
22064;SDS011;11197;53.110;8.468;2024-03-02T10:43:49;11.57;;;7.40;;
22064;SDS011;11197;53.110;8.468;2024-03-02T10:46:19;10.27;;;7.22;;
22064;SDS011;11197;53.110;8.468;2024-03-02T10:48:45;10.77;;;7.10;;
22064;SDS011;11197;53.110;8.468;2024-03-02T10:51:12;12.15;;;7.30;;
22064;SDS011;11197;53.110;8.468;2024-03-02T10:53:37;10.52;;;6.50;;
22064;SDS011;11197;53.110;8.468;2024-03-02T10:56:03;10.95;;;6.70;;
22064;SDS011;11197;53.110;8.468;2024-03-02T10:58:34;14.60;;;7.47;;
22064;SDS011;11197;53.110;8.468;2024-03-02T11:01:02;8.07;;;5.20;;
22064;SDS011;11197;53.110;8.468;2024-03-02T11:03:33;8.68;;;4.63;;
22064;SDS011;11197;53.110;8.468;2024-03-02T11:06:03;8.80;;;4.63;;
22064;SDS011;11197;53.110;8.468;2024-03-02T11:08:32;8.70;;;5.85;;
22064;SDS011;11197;53.110;8.468;2024-03-02T11:13:32;12.50;;;6.55;;
22064;SDS011;11197;53.110;8.468;2024-03-02T11:15:59;10.35;;;6.28;;
22064;SDS011;11197;53.110;8.468;2024-03-02T11:18:31;8.98;;;6.00;;
22064;SDS011;11197;53.110;8.468;2024-03-02T11:20:58;9.68;;;6.25;;
22064;SDS011;11197;53.110;8.468;2024-03-02T11:23:31;10.25;;;6.93;;
22064;SDS011;11197;53.110;8.468;2024-03-02T11:28:46;11.63;;;6.70;;
22064;SDS011;11197;53.110;8.468;2024-03-02T11:31:12;9.93;;;6.65;;
22064;SDS011;11197;53.110;8.468;2024-03-02T11:33:37;9.88;;;6.88;;
22064;SDS011;11197;53.110;8.468;2024-03-02T11:36:03;8.75;;;6.25;;
22064;SDS011;11197;53.110;8.468;2024-03-02T11:38:32;8.73;;;6.32;;
22064;SDS011;11197;53.110;8.468;2024-03-02T11:40:59;10.38;;;5.88;;
22064;SDS011;11197;53.110;8.468;2024-03-02T11:43:27;11.45;;;6.30;;
22064;SDS011;11197;53.110;8.468;2024-03-02T11:46:00;9.40;;;6.32;;
22064;SDS011;11197;53.110;8.468;2024-03-02T11:48:29;10.65;;;4.60;;
22064;SDS011;11197;53.110;8.468;2024-03-02T11:50:57;9.10;;;6.60;;
22064;SDS011;11197;53.110;8.468;2024-03-02T11:53:24;11.60;;;6.50;;
22064;SDS011;11197;53.110;8.468;2024-03-02T11:55:54;10.07;;;6.32;;
22064;SDS011;11197;53.110;8.468;2024-03-02T11:58:21;9.38;;;6.10;;
22064;SDS011;11197;53.110;8.468;2024-03-02T12:00:57;8.40;;;5.78;;
22064;SDS011;11197;53.110;8.468;2024-03-02T12:03:24;9.65;;;6.00;;
22064;SDS011;11197;53.110;8.468;2024-03-02T12:05:52;12.75;;;6.47;;
22064;SDS011;11197;53.110;8.468;2024-03-02T12:08:19;8.32;;;5.18;;
22064;SDS011;11197;53.110;8.468;2024-03-02T12:10:55;8.20;;;5.65;;
22064;SDS011;11197;53.110;8.468;2024-03-02T12:13:24;9.68;;;6.30;;
22064;SDS011;11197;53.110;8.468;2024-03-02T12:15:52;10.00;;;6.05;;
22064;SDS011;11197;53.110;8.468;2024-03-02T12:18:22;9.10;;;5.53;;
22064;SDS011;11197;53.110;8.468;2024-03-02T12:20:49;8.60;;;5.60;;
22064;SDS011;11197;53.110;8.468;2024-03-02T12:23:21;8.68;;;5.78;;
22064;SDS011;11197;53.110;8.468;2024-03-02T12:25:48;8.95;;;6.20;;
22064;SDS011;11197;53.110;8.468;2024-03-02T12:28:14;8.65;;;6.25;;
22064;SDS011;11197;53.110;8.468;2024-03-02T12:30:40;8.98;;;6.10;;
22064;SDS011;11197;53.110;8.468;2024-03-02T12:33:05;9.77;;;6.55;;
22064;SDS011;11197;53.110;8.468;2024-03-02T12:35:31;9.75;;;6.68;;
22064;SDS011;11197;53.110;8.468;2024-03-02T12:37:57;10.05;;;6.43;;
22064;SDS011;11197;53.110;8.468;2024-03-02T12:40:23;8.30;;;6.00;;
22064;SDS011;11197;53.110;8.468;2024-03-02T12:42:49;8.63;;;6.45;;
22064;SDS011;11197;53.110;8.468;2024-03-02T12:45:16;10.85;;;5.88;;
22064;SDS011;11197;53.110;8.468;2024-03-02T12:47:48;10.15;;;6.65;;
22064;SDS011;11197;53.110;8.468;2024-03-02T12:50:15;9.00;;;5.78;;
22064;SDS011;11197;53.110;8.468;2024-03-02T12:52:41;8.18;;;5.70;;
22064;SDS011;11197;53.110;8.468;2024-03-02T12:55:07;8.30;;;5.05;;
22064;SDS011;11197;53.110;8.468;2024-03-02T12:57:33;7.03;;;5.38;;
22064;SDS011;11197;53.110;8.468;2024-03-02T12:59:59;8.30;;;5.13;;
22064;SDS011;11197;53.110;8.468;2024-03-02T13:02:34;7.00;;;4.20;;
22064;SDS011;11197;53.110;8.468;2024-03-02T13:05:01;6.35;;;4.28;;
22064;SDS011;11197;53.110;8.468;2024-03-02T13:07:27;7.85;;;4.93;;
22064;SDS011;11197;53.110;8.468;2024-03-02T13:09:53;6.68;;;4.53;;
22064;SDS011;11197;53.110;8.468;2024-03-02T13:12:20;9.07;;;4.55;;
22064;SDS011;11197;53.110;8.468;2024-03-02T13:14:51;7.78;;;4.28;;
22064;SDS011;11197;53.110;8.468;2024-03-02T13:19:50;7.20;;;4.63;;
22064;SDS011;11197;53.110;8.468;2024-03-02T13:22:25;6.97;;;4.22;;
22064;SDS011;11197;53.110;8.468;2024-03-02T13:24:52;8.68;;;4.18;;
22064;SDS011;11197;53.110;8.468;2024-03-02T13:27:21;6.35;;;4.28;;
22064;SDS011;11197;53.110;8.468;2024-03-02T13:29:47;6.28;;;4.22;;
22064;SDS011;11197;53.110;8.468;2024-03-02T13:32:14;6.18;;;4.15;;
22064;SDS011;11197;53.110;8.468;2024-03-02T13:34:40;8.20;;;4.20;;
22064;SDS011;11197;53.110;8.468;2024-03-02T13:37:06;6.45;;;4.40;;
22064;SDS011;11197;53.110;8.468;2024-03-02T13:39:32;7.22;;;4.30;;
22064;SDS011;11197;53.110;8.468;2024-03-02T13:42:00;6.32;;;4.70;;
22064;SDS011;11197;53.110;8.468;2024-03-02T13:44:32;8.15;;;5.47;;
22064;SDS011;11197;53.110;8.468;2024-03-02T13:46:58;9.55;;;6.63;;
22064;SDS011;11197;53.110;8.468;2024-03-02T13:49:25;9.90;;;6.78;;
22064;SDS011;11197;53.110;8.468;2024-03-02T13:51:59;9.30;;;6.50;;
22064;SDS011;11197;53.110;8.468;2024-03-02T13:54:28;9.45;;;6.75;;
22064;SDS011;11197;53.110;8.468;2024-03-02T13:56:54;9.85;;;6.75;;
22064;SDS011;11197;53.110;8.468;2024-03-02T13:59:20;9.02;;;6.20;;
22064;SDS011;11197;53.110;8.468;2024-03-02T14:01:46;11.02;;;6.70;;
22064;SDS011;11197;53.110;8.468;2024-03-02T14:04:11;9.93;;;6.50;;
22064;SDS011;11197;53.110;8.468;2024-03-02T14:06:37;9.18;;;6.30;;
22064;SDS011;11197;53.110;8.468;2024-03-02T14:09:03;11.90;;;5.70;;
22064;SDS011;11197;53.110;8.468;2024-03-02T14:11:29;8.18;;;5.70;;
22064;SDS011;11197;53.110;8.468;2024-03-02T14:13:55;9.50;;;6.07;;
22064;SDS011;11197;53.110;8.468;2024-03-02T14:16:22;7.63;;;5.40;;
22064;SDS011;11197;53.110;8.468;2024-03-02T14:18:47;6.82;;;5.00;;
22064;SDS011;11197;53.110;8.468;2024-03-02T14:21:13;8.20;;;6.00;;
22064;SDS011;11197;53.110;8.468;2024-03-02T14:23:39;8.07;;;5.68;;
22064;SDS011;11197;53.110;8.468;2024-03-02T14:26:05;7.18;;;5.13;;
22064;SDS011;11197;53.110;8.468;2024-03-02T14:28:31;7.70;;;5.35;;
22064;SDS011;11197;53.110;8.468;2024-03-02T14:30:57;8.30;;;5.03;;
22064;SDS011;11197;53.110;8.468;2024-03-02T14:33:24;6.45;;;4.95;;
22064;SDS011;11197;53.110;8.468;2024-03-02T14:35:49;8.10;;;5.40;;
22064;SDS011;11197;53.110;8.468;2024-03-02T14:38:15;7.28;;;5.30;;
22064;SDS011;11197;53.110;8.468;2024-03-02T14:40:41;7.57;;;5.18;;